Terminal Aerodrome Forecast
Issued by NWS

Home | Current Version | Previous Version | Text Only | Print | Product List | Glossary On
Versions: 1 2 3 4 5 6 7 8 9 10 11 12
000
FTUS41 KLWX 292300
TAFMTN
TAF
KMTN 292332Z 3000/3024 00000KT P6SM SCT200
     FM301000 VRB03KT P6SM BKN110
     FM301600 16007KT P6SM BKN045
      AMD NOT SKED 3002/3012=

USA.gov is the U.S. government's official web portal to all federal, state and local government web resources and services.